Fort McCoy, Florida
Current Conditions -  °F | °C
As of 5:55 PM on Friday 28 Nov 2014 (Local Time) from K28J Reporting Station
Broken Clouds Broken Clouds  
Wind Chill: 46°   Ceiling: 2600
Heat Index: 48°   Visibility: 10mi
Dew Point: 41°   Wind: 6mph
Humidity: 76%   Direction: 40°NE
Pressure: 30.31"   Gusts: NA
Location:  29.36°N, 81.97°W
Report Text: K28J 282255Z AUTO 04005KT 10SM BKN026 09/05 A3031 RMK AO2
Loading
Personal Weather Stations






























Interactive Weather Map New forecast layout! Learn more

10-Day Weather Forecast

Advertisements
Track Severe Weather on mobile